sensor_id;sensor_type;location;lat;lon;timestamp;temperature;humidity
4374;DHT22;2201;51.100;6.814;2024-03-08T00:00:43;4.50;98.20
4374;DHT22;2201;51.100;6.814;2024-03-08T00:03:13;4.50;98.20
4374;DHT22;2201;51.100;6.814;2024-03-08T00:05:54;4.50;98.20
4374;DHT22;2201;51.100;6.814;2024-03-08T00:08:26;4.50;98.20
4374;DHT22;2201;51.100;6.814;2024-03-08T00:11:09;4.50;98.20
4374;DHT22;2201;51.100;6.814;2024-03-08T00:13:40;4.40;98.20
4374;DHT22;2201;51.100;6.814;2024-03-08T00:16:19;4.40;98.20
4374;DHT22;2201;51.100;6.814;2024-03-08T00:19:07;4.40;98.20
4374;DHT22;2201;51.100;6.814;2024-03-08T00:21:35;4.30;98.20
4374;DHT22;2201;51.100;6.814;2024-03-08T00:24:13;4.30;98.20
4374;DHT22;2201;51.100;6.814;2024-03-08T00:26:50;4.30;98.20
4374;DHT22;2201;51.100;6.814;2024-03-08T00:29:25;4.30;98.20
4374;DHT22;2201;51.100;6.814;2024-03-08T00:31:59;4.30;98.20
4374;DHT22;2201;51.100;6.814;2024-03-08T00:34:35;4.20;98.20
4374;DHT22;2201;51.100;6.814;2024-03-08T00:37:06;4.20;98.20
4374;DHT22;2201;51.100;6.814;2024-03-08T00:39:44;4.20;98.20
4374;DHT22;2201;51.100;6.814;2024-03-08T00:42:15;4.10;98.20
4374;DHT22;2201;51.100;6.814;2024-03-08T00:44:44;4.10;98.20
4374;DHT22;2201;51.100;6.814;2024-03-08T00:47:17;4.10;98.20
4374;DHT22;2201;51.100;6.814;2024-03-08T00:49:45;4.10;98.20
4374;DHT22;2201;51.100;6.814;2024-03-08T00:52:13;4.10;98.20
4374;DHT22;2201;51.100;6.814;2024-03-08T00:54:41;4.00;98.20
4374;DHT22;2201;51.100;6.814;2024-03-08T00:57:09;4.00;98.20
4374;DHT22;2201;51.100;6.814;2024-03-08T00:59:38;4.00;98.20
4374;DHT22;2201;51.100;6.814;2024-03-08T01:02:10;3.90;98.20
4374;DHT22;2201;51.100;6.814;2024-03-08T01:04:39;3.90;98.20
4374;DHT22;2201;51.100;6.814;2024-03-08T01:07:07;3.90;98.20
4374;DHT22;2201;51.100;6.814;2024-03-08T01:09:35;3.90;98.20
4374;DHT22;2201;51.100;6.814;2024-03-08T01:12:03;3.80;98.20
4374;DHT22;2201;51.100;6.814;2024-03-08T01:14:33;3.80;98.20
4374;DHT22;2201;51.100;6.814;2024-03-08T01:17:01;3.80;98.20
4374;DHT22;2201;51.100;6.814;2024-03-08T01:19:28;3.70;98.20
4374;DHT22;2201;51.100;6.814;2024-03-08T01:22:02;3.70;98.20
4374;DHT22;2201;51.100;6.814;2024-03-08T01:24:29;3.70;98.20
4374;DHT22;2201;51.100;6.814;2024-03-08T01:26:58;3.60;98.20
4374;DHT22;2201;51.100;6.814;2024-03-08T01:29:34;3.60;98.20
4374;DHT22;2201;51.100;6.814;2024-03-08T01:32:02;3.60;98.20
4374;DHT22;2201;51.100;6.814;2024-03-08T01:34:29;3.60;98.20
4374;DHT22;2201;51.100;6.814;2024-03-08T01:37:01;3.50;98.20
4374;DHT22;2201;51.100;6.814;2024-03-08T01:39:28;3.50;98.20
4374;DHT22;2201;51.100;6.814;2024-03-08T01:41:55;3.50;98.20
4374;DHT22;2201;51.100;6.814;2024-03-08T01:44:26;3.40;98.20
4374;DHT22;2201;51.100;6.814;2024-03-08T01:46:53;3.40;98.20
4374;DHT22;2201;51.100;6.814;2024-03-08T01:49:22;3.40;98.20
4374;DHT22;2201;51.100;6.814;2024-03-08T01:51:49;3.40;98.20
4374;DHT22;2201;51.100;6.814;2024-03-08T01:54:21;3.40;98.20
4374;DHT22;2201;51.100;6.814;2024-03-08T01:56:49;3.40;98.20
4374;DHT22;2201;51.100;6.814;2024-03-08T01:59:18;3.40;98.20
4374;DHT22;2201;51.100;6.814;2024-03-08T02:01:46;3.40;98.20
4374;DHT22;2201;51.100;6.814;2024-03-08T02:04:13;3.40;98.20
4374;DHT22;2201;51.100;6.814;2024-03-08T02:06:42;3.30;98.20
4374;DHT22;2201;51.100;6.814;2024-03-08T02:09:10;3.30;98.20
4374;DHT22;2201;51.100;6.814;2024-03-08T02:11:40;3.30;98.20
4374;DHT22;2201;51.100;6.814;2024-03-08T02:14:08;3.30;98.20
4374;DHT22;2201;51.100;6.814;2024-03-08T02:16:36;3.30;98.20
4374;DHT22;2201;51.100;6.814;2024-03-08T02:19:04;3.30;98.20
4374;DHT22;2201;51.100;6.814;2024-03-08T02:21:37;3.20;98.20
4374;DHT22;2201;51.100;6.814;2024-03-08T02:24:05;3.20;98.20
4374;DHT22;2201;51.100;6.814;2024-03-08T02:26:32;3.20;98.20
4374;DHT22;2201;51.100;6.814;2024-03-08T02:28:59;3.20;98.20
4374;DHT22;2201;51.100;6.814;2024-03-08T02:31:26;3.20;98.20
4374;DHT22;2201;51.100;6.814;2024-03-08T02:33:53;3.20;98.20
4374;DHT22;2201;51.100;6.814;2024-03-08T02:36:20;3.10;98.20
4374;DHT22;2201;51.100;6.814;2024-03-08T02:38:49;3.10;98.20
4374;DHT22;2201;51.100;6.814;2024-03-08T02:41:16;3.10;98.20
4374;DHT22;2201;51.100;6.814;2024-03-08T02:43:43;3.10;98.20
4374;DHT22;2201;51.100;6.814;2024-03-08T02:46:11;3.10;98.20
4374;DHT22;2201;51.100;6.814;2024-03-08T02:48:38;3.10;98.20
4374;DHT22;2201;51.100;6.814;2024-03-08T02:51:05;3.10;98.20
4374;DHT22;2201;51.100;6.814;2024-03-08T02:53:32;3.10;98.20
4374;DHT22;2201;51.100;6.814;2024-03-08T02:56:04;3.10;98.20
4374;DHT22;2201;51.100;6.814;2024-03-08T02:58:34;3.00;98.20
4374;DHT22;2201;51.100;6.814;2024-03-08T03:01:01;3.00;98.20
4374;DHT22;2201;51.100;6.814;2024-03-08T03:03:27;3.00;98.20
4374;DHT22;2201;51.100;6.814;2024-03-08T03:05:54;3.00;98.20
4374;DHT22;2201;51.100;6.814;2024-03-08T03:08:21;3.00;98.20
4374;DHT22;2201;51.100;6.814;2024-03-08T03:10:49;3.00;98.20
4374;DHT22;2201;51.100;6.814;2024-03-08T03:13:17;2.90;98.20
4374;DHT22;2201;51.100;6.814;2024-03-08T03:15:46;2.90;98.20
4374;DHT22;2201;51.100;6.814;2024-03-08T03:18:13;3.00;98.20
4374;DHT22;2201;51.100;6.814;2024-03-08T03:20:41;3.00;98.20
4374;DHT22;2201;51.100;6.814;2024-03-08T03:23:08;3.00;98.20
4374;DHT22;2201;51.100;6.814;2024-03-08T03:25:46;2.90;98.20
4374;DHT22;2201;51.100;6.814;2024-03-08T03:28:19;2.90;98.20
4374;DHT22;2201;51.100;6.814;2024-03-08T03:30:52;2.90;98.20
4374;DHT22;2201;51.100;6.814;2024-03-08T03:33:22;2.90;98.20
4374;DHT22;2201;51.100;6.814;2024-03-08T03:39:22;2.80;98.20
4374;DHT22;2201;51.100;6.814;2024-03-08T03:41:50;2.80;98.20
4374;DHT22;2201;51.100;6.814;2024-03-08T03:44:19;2.80;98.20
4374;DHT22;2201;51.100;6.814;2024-03-08T03:46:45;2.80;98.20
4374;DHT22;2201;51.100;6.814;2024-03-08T03:49:12;2.80;98.20
4374;DHT22;2201;51.100;6.814;2024-03-08T03:51:39;2.80;98.20
4374;DHT22;2201;51.100;6.814;2024-03-08T03:54:06;2.80;98.20
4374;DHT22;2201;51.100;6.814;2024-03-08T03:56:33;2.80;98.20
4374;DHT22;2201;51.100;6.814;2024-03-08T03:59:02;2.90;98.20
4374;DHT22;2201;51.100;6.814;2024-03-08T04:01:30;2.90;98.20
4374;DHT22;2201;51.100;6.814;2024-03-08T04:03:57;2.90;98.20
4374;DHT22;2201;51.100;6.814;2024-03-08T04:06:27;2.90;98.20
4374;DHT22;2201;51.100;6.814;2024-03-08T04:08:54;2.90;98.20
4374;DHT22;2201;51.100;6.814;2024-03-08T04:11:21;2.90;98.20
4374;DHT22;2201;51.100;6.814;2024-03-08T04:17:11;2.90;98.20
4374;DHT22;2201;51.100;6.814;2024-03-08T04:19:42;2.90;98.20
4374;DHT22;2201;51.100;6.814;2024-03-08T04:22:09;2.90;98.20
4374;DHT22;2201;51.100;6.814;2024-03-08T04:24:37;2.90;98.20
4374;DHT22;2201;51.100;6.814;2024-03-08T04:27:05;3.00;98.20
4374;DHT22;2201;51.100;6.814;2024-03-08T04:29:32;3.00;98.20
4374;DHT22;2201;51.100;6.814;2024-03-08T04:32:00;3.00;98.20
4374;DHT22;2201;51.100;6.814;2024-03-08T04:34:30;3.00;98.20
4374;DHT22;2201;51.100;6.814;2024-03-08T04:36:57;3.00;98.20
4374;DHT22;2201;51.100;6.814;2024-03-08T04:39:26;3.10;98.20
4374;DHT22;2201;51.100;6.814;2024-03-08T04:41:54;3.10;98.20
4374;DHT22;2201;51.100;6.814;2024-03-08T04:44:25;3.10;98.20
4374;DHT22;2201;51.100;6.814;2024-03-08T04:46:52;3.00;98.20
4374;DHT22;2201;51.100;6.814;2024-03-08T04:49:19;3.10;98.20
4374;DHT22;2201;51.100;6.814;2024-03-08T04:51:48;3.00;98.20
4374;DHT22;2201;51.100;6.814;2024-03-08T04:54:17;3.00;98.20
4374;DHT22;2201;51.100;6.814;2024-03-08T04:56:44;3.00;98.20
4374;DHT22;2201;51.100;6.814;2024-03-08T05:02:50;3.00;98.20
4374;DHT22;2201;51.100;6.814;2024-03-08T05:05:18;3.00;98.20
4374;DHT22;2201;51.100;6.814;2024-03-08T05:07:47;3.00;98.20
4374;DHT22;2201;51.100;6.814;2024-03-08T05:10:14;3.00;98.20
4374;DHT22;2201;51.100;6.814;2024-03-08T05:12:44;3.00;98.20
4374;DHT22;2201;51.100;6.814;2024-03-08T05:15:11;3.00;98.20
4374;DHT22;2201;51.100;6.814;2024-03-08T05:17:38;3.00;98.20
4374;DHT22;2201;51.100;6.814;2024-03-08T05:20:06;3.00;98.20
4374;DHT22;2201;51.100;6.814;2024-03-08T05:22:40;3.00;98.20
4374;DHT22;2201;51.100;6.814;2024-03-08T05:25:29;3.00;98.20
4374;DHT22;2201;51.100;6.814;2024-03-08T05:27:56;3.00;98.20
4374;DHT22;2201;51.100;6.814;2024-03-08T05:30:23;3.00;98.20
4374;DHT22;2201;51.100;6.814;2024-03-08T05:32:50;2.90;98.20
4374;DHT22;2201;51.100;6.814;2024-03-08T05:38:28;2.90;98.20
4374;DHT22;2201;51.100;6.814;2024-03-08T05:40:56;2.90;98.20
4374;DHT22;2201;51.100;6.814;2024-03-08T05:43:25;2.90;98.20
4374;DHT22;2201;51.100;6.814;2024-03-08T05:45:53;2.90;98.20
4374;DHT22;2201;51.100;6.814;2024-03-08T05:48:20;2.90;98.20
4374;DHT22;2201;51.100;6.814;2024-03-08T05:53:29;2.90;98.20
4374;DHT22;2201;51.100;6.814;2024-03-08T05:56:19;2.90;98.20
4374;DHT22;2201;51.100;6.814;2024-03-08T05:59:14;2.90;98.20
4374;DHT22;2201;51.100;6.814;2024-03-08T06:01:44;2.90;98.20
4374;DHT22;2201;51.100;6.814;2024-03-08T06:04:12;2.90;98.20
4374;DHT22;2201;51.100;6.814;2024-03-08T06:06:47;2.90;98.20
4374;DHT22;2201;51.100;6.814;2024-03-08T06:09:42;3.00;98.20
4374;DHT22;2201;51.100;6.814;2024-03-08T06:24:32;3.10;98.20
4374;DHT22;2201;51.100;6.814;2024-03-08T06:27:02;3.10;98.20
4374;DHT22;2201;51.100;6.814;2024-03-08T06:29:31;3.10;98.20
4374;DHT22;2201;51.100;6.814;2024-03-08T06:31:58;3.20;98.20
4374;DHT22;2201;51.100;6.814;2024-03-08T06:35:01;3.20;98.20
4374;DHT22;2201;51.100;6.814;2024-03-08T06:37:31;3.20;98.20
4374;DHT22;2201;51.100;6.814;2024-03-08T06:40:00;3.30;98.20
4374;DHT22;2201;51.100;6.814;2024-03-08T06:42:27;3.30;98.20
4374;DHT22;2201;51.100;6.814;2024-03-08T06:44:54;3.40;98.20
4374;DHT22;2201;51.100;6.814;2024-03-08T06:47:28;3.40;98.20
4374;DHT22;2201;51.100;6.814;2024-03-08T06:49:55;3.50;98.20
4374;DHT22;2201;51.100;6.814;2024-03-08T06:52:24;3.60;98.20
4374;DHT22;2201;51.100;6.814;2024-03-08T06:54:51;3.60;98.20
4374;DHT22;2201;51.100;6.814;2024-03-08T06:57:19;3.70;98.20
4374;DHT22;2201;51.100;6.814;2024-03-08T06:59:47;3.80;98.20
4374;DHT22;2201;51.100;6.814;2024-03-08T07:02:14;3.90;98.20
4374;DHT22;2201;51.100;6.814;2024-03-08T07:04:41;4.00;98.20
4374;DHT22;2201;51.100;6.814;2024-03-08T07:07:08;4.10;98.20
4374;DHT22;2201;51.100;6.814;2024-03-08T07:09:36;4.30;98.20
4374;DHT22;2201;51.100;6.814;2024-03-08T07:12:03;4.40;98.20
4374;DHT22;2201;51.100;6.814;2024-03-08T07:14:31;4.50;98.20
4374;DHT22;2201;51.100;6.814;2024-03-08T07:17:01;4.70;98.20
4374;DHT22;2201;51.100;6.814;2024-03-08T07:19:34;4.80;98.20
4374;DHT22;2201;51.100;6.814;2024-03-08T07:22:03;4.90;98.20
4374;DHT22;2201;51.100;6.814;2024-03-08T07:24:34;5.10;98.20
4374;DHT22;2201;51.100;6.814;2024-03-08T07:27:16;5.20;98.20
4374;DHT22;2201;51.100;6.814;2024-03-08T07:29:44;5.30;98.20
4374;DHT22;2201;51.100;6.814;2024-03-08T07:32:11;5.40;98.20
4374;DHT22;2201;51.100;6.814;2024-03-08T07:34:47;5.40;98.20
4374;DHT22;2201;51.100;6.814;2024-03-08T07:37:14;5.50;98.20
4374;DHT22;2201;51.100;6.814;2024-03-08T07:39:41;5.60;98.20
4374;DHT22;2201;51.100;6.814;2024-03-08T07:42:09;5.70;98.20
4374;DHT22;2201;51.100;6.814;2024-03-08T07:44:37;5.80;98.20
4374;DHT22;2201;51.100;6.814;2024-03-08T07:47:05;5.90;98.20
4374;DHT22;2201;51.100;6.814;2024-03-08T07:49:35;6.10;98.20
4374;DHT22;2201;51.100;6.814;2024-03-08T07:52:05;6.20;98.20
4374;DHT22;2201;51.100;6.814;2024-03-08T07:54:34;6.30;98.20
4374;DHT22;2201;51.100;6.814;2024-03-08T07:57:07;6.40;98.20
4374;DHT22;2201;51.100;6.814;2024-03-08T07:59:35;6.40;98.20
4374;DHT22;2201;51.100;6.814;2024-03-08T08:02:02;6.50;98.20
4374;DHT22;2201;51.100;6.814;2024-03-08T08:04:31;6.60;98.20
4374;DHT22;2201;51.100;6.814;2024-03-08T08:07:00;6.70;98.20
4374;DHT22;2201;51.100;6.814;2024-03-08T08:09:27;6.80;98.20
4374;DHT22;2201;51.100;6.814;2024-03-08T08:11:59;6.90;98.20
4374;DHT22;2201;51.100;6.814;2024-03-08T08:14:27;7.00;98.20
4374;DHT22;2201;51.100;6.814;2024-03-08T08:16:57;7.10;98.20
4374;DHT22;2201;51.100;6.814;2024-03-08T08:19:34;7.30;98.20
4374;DHT22;2201;51.100;6.814;2024-03-08T08:22:04;7.30;98.20
4374;DHT22;2201;51.100;6.814;2024-03-08T08:24:34;7.40;98.20
4374;DHT22;2201;51.100;6.814;2024-03-08T08:27:04;7.40;98.20
4374;DHT22;2201;51.100;6.814;2024-03-08T08:29:34;7.50;98.20
4374;DHT22;2201;51.100;6.814;2024-03-08T08:32:01;7.60;98.20
4374;DHT22;2201;51.100;6.814;2024-03-08T08:34:28;7.70;98.20
4374;DHT22;2201;51.100;6.814;2024-03-08T08:37:06;7.70;98.20
4374;DHT22;2201;51.100;6.814;2024-03-08T08:39:35;7.80;98.20
4374;DHT22;2201;51.100;6.814;2024-03-08T08:42:03;7.90;98.20
4374;DHT22;2201;51.100;6.814;2024-03-08T08:44:30;8.00;98.20
4374;DHT22;2201;51.100;6.814;2024-03-08T08:46:57;8.10;97.80
4374;DHT22;2201;51.100;6.814;2024-03-08T08:49:24;8.20;97.80
4374;DHT22;2201;51.100;6.814;2024-03-08T08:51:51;8.30;97.10
4374;DHT22;2201;51.100;6.814;2024-03-08T08:54:20;8.30;96.80
4374;DHT22;2201;51.100;6.814;2024-03-08T08:56:48;8.40;97.80
4374;DHT22;2201;51.100;6.814;2024-03-08T08:59:17;8.50;95.90
4374;DHT22;2201;51.100;6.814;2024-03-08T09:01:44;8.50;96.30
4374;DHT22;2201;51.100;6.814;2024-03-08T09:04:12;8.60;96.10
4374;DHT22;2201;51.100;6.814;2024-03-08T09:06:39;8.70;95.40
4374;DHT22;2201;51.100;6.814;2024-03-08T09:09:07;8.80;96.00
4374;DHT22;2201;51.100;6.814;2024-03-08T09:11:37;8.90;94.90
4374;DHT22;2201;51.100;6.814;2024-03-08T09:14:07;8.90;94.60
4374;DHT22;2201;51.100;6.814;2024-03-08T09:16:34;9.00;94.40
4374;DHT22;2201;51.100;6.814;2024-03-08T09:19:02;9.10;94.40
4374;DHT22;2201;51.100;6.814;2024-03-08T09:21:29;9.10;93.90
4374;DHT22;2201;51.100;6.814;2024-03-08T09:23:57;9.20;94.00
4374;DHT22;2201;51.100;6.814;2024-03-08T09:26:24;9.20;93.90
4374;DHT22;2201;51.100;6.814;2024-03-08T09:28:53;9.40;93.60
4374;DHT22;2201;51.100;6.814;2024-03-08T09:31:21;9.40;93.60
4374;DHT22;2201;51.100;6.814;2024-03-08T09:33:51;9.50;92.90
4374;DHT22;2201;51.100;6.814;2024-03-08T09:36:18;9.60;92.60
4374;DHT22;2201;51.100;6.814;2024-03-08T09:38:45;9.70;92.10
4374;DHT22;2201;51.100;6.814;2024-03-08T09:41:13;9.80;91.80
4374;DHT22;2201;51.100;6.814;2024-03-08T09:43:40;9.90;92.40
4374;DHT22;2201;51.100;6.814;2024-03-08T09:46:09;10.00;92.00
4374;DHT22;2201;51.100;6.814;2024-03-08T09:48:37;10.10;92.00
4374;DHT22;2201;51.100;6.814;2024-03-08T09:51:10;10.30;92.50
4374;DHT22;2201;51.100;6.814;2024-03-08T09:54:00;10.60;90.70
4374;DHT22;2201;51.100;6.814;2024-03-08T09:56:32;10.60;89.30
4374;DHT22;2201;51.100;6.814;2024-03-08T09:59:02;10.50;90.20
4374;DHT22;2201;51.100;6.814;2024-03-08T10:02:14;10.70;89.80
4374;DHT22;2201;51.100;6.814;2024-03-08T10:04:41;10.70;89.10
4374;DHT22;2201;51.100;6.814;2024-03-08T10:07:09;10.80;88.70
4374;DHT22;2201;51.100;6.814;2024-03-08T10:09:36;10.80;88.20
4374;DHT22;2201;51.100;6.814;2024-03-08T10:12:05;11.00;88.50
4374;DHT22;2201;51.100;6.814;2024-03-08T10:14:41;11.00;88.00
4374;DHT22;2201;51.100;6.814;2024-03-08T10:17:21;11.10;87.60
4374;DHT22;2201;51.100;6.814;2024-03-08T10:20:02;11.10;86.90
4374;DHT22;2201;51.100;6.814;2024-03-08T10:22:43;11.10;86.70
4374;DHT22;2201;51.100;6.814;2024-03-08T10:25:16;11.00;86.80
4374;DHT22;2201;51.100;6.814;2024-03-08T10:27:44;11.00;86.90
4374;DHT22;2201;51.100;6.814;2024-03-08T10:30:14;11.10;86.30
4374;DHT22;2201;51.100;6.814;2024-03-08T10:32:47;11.10;86.60
4374;DHT22;2201;51.100;6.814;2024-03-08T10:35:15;11.20;87.60
4374;DHT22;2201;51.100;6.814;2024-03-08T10:37:53;11.30;86.40
4374;DHT22;2201;51.100;6.814;2024-03-08T10:40:25;11.20;86.50
4374;DHT22;2201;51.100;6.814;2024-03-08T10:42:53;11.30;86.40
4374;DHT22;2201;51.100;6.814;2024-03-08T10:45:30;11.20;85.80
4374;DHT22;2201;51.100;6.814;2024-03-08T10:48:10;11.30;85.80
4374;DHT22;2201;51.100;6.814;2024-03-08T10:50:42;11.50;86.00
4374;DHT22;2201;51.100;6.814;2024-03-08T10:53:11;11.80;85.50
4374;DHT22;2201;51.100;6.814;2024-03-08T10:55:42;11.90;84.80
4374;DHT22;2201;51.100;6.814;2024-03-08T10:58:12;12.00;84.30
4374;DHT22;2201;51.100;6.814;2024-03-08T11:00:40;12.10;84.20
4374;DHT22;2201;51.100;6.814;2024-03-08T11:03:44;12.20;83.70
4374;DHT22;2201;51.100;6.814;2024-03-08T11:06:41;12.30;83.80
4374;DHT22;2201;51.100;6.814;2024-03-08T11:09:10;12.30;83.00
4374;DHT22;2201;51.100;6.814;2024-03-08T11:11:42;12.20;83.00
4374;DHT22;2201;51.100;6.814;2024-03-08T11:14:42;12.30;83.30
4374;DHT22;2201;51.100;6.814;2024-03-08T11:17:14;12.40;82.80
4374;DHT22;2201;51.100;6.814;2024-03-08T11:19:51;12.40;82.70
4374;DHT22;2201;51.100;6.814;2024-03-08T11:22:54;12.40;82.40
4374;DHT22;2201;51.100;6.814;2024-03-08T11:25:39;12.50;82.90
4374;DHT22;2201;51.100;6.814;2024-03-08T11:28:15;12.70;81.90
4374;DHT22;2201;51.100;6.814;2024-03-08T11:34:15;12.50;81.80
4374;DHT22;2201;51.100;6.814;2024-03-08T11:39:57;12.60;81.30
4374;DHT22;2201;51.100;6.814;2024-03-08T11:42:25;12.70;81.20
4374;DHT22;2201;51.100;6.814;2024-03-08T11:44:53;12.80;81.10
4374;DHT22;2201;51.100;6.814;2024-03-08T11:47:21;12.80;80.60
4374;DHT22;2201;51.100;6.814;2024-03-08T11:49:59;13.00;81.00
4374;DHT22;2201;51.100;6.814;2024-03-08T11:52:39;13.00;80.00
4374;DHT22;2201;51.100;6.814;2024-03-08T11:55:42;12.90;79.40
4374;DHT22;2201;51.100;6.814;2024-03-08T11:58:52;12.80;79.30
4374;DHT22;2201;51.100;6.814;2024-03-08T12:01:41;13.00;80.50
4374;DHT22;2201;51.100;6.814;2024-03-08T12:04:13;13.10;80.00
4374;DHT22;2201;51.100;6.814;2024-03-08T12:06:41;13.30;80.00
4374;DHT22;2201;51.100;6.814;2024-03-08T12:09:08;13.30;79.50
4374;DHT22;2201;51.100;6.814;2024-03-08T12:11:40;13.50;79.60
4374;DHT22;2201;51.100;6.814;2024-03-08T12:14:09;13.50;78.70
4374;DHT22;2201;51.100;6.814;2024-03-08T12:16:37;13.40;79.10
4374;DHT22;2201;51.100;6.814;2024-03-08T12:19:04;13.50;78.60
4374;DHT22;2201;51.100;6.814;2024-03-08T12:22:11;13.60;79.20
4374;DHT22;2201;51.100;6.814;2024-03-08T12:25:10;13.70;79.00
4374;DHT22;2201;51.100;6.814;2024-03-08T12:27:43;13.70;78.60
4374;DHT22;2201;51.100;6.814;2024-03-08T12:30:21;13.60;78.60
4374;DHT22;2201;51.100;6.814;2024-03-08T12:32:54;13.70;78.30
4374;DHT22;2201;51.100;6.814;2024-03-08T12:37:14;13.70;78.70
4374;DHT22;2201;51.100;6.814;2024-03-08T12:39:07;13.70;78.00
4374;DHT22;2201;51.100;6.814;2024-03-08T12:41:42;13.80;77.50
4374;DHT22;2201;51.100;6.814;2024-03-08T12:44:27;13.80;77.90
4374;DHT22;2201;51.100;6.814;2024-03-08T12:47:03;13.70;77.60
4374;DHT22;2201;51.100;6.814;2024-03-08T12:49:41;13.80;77.40
4374;DHT22;2201;51.100;6.814;2024-03-08T12:52:13;13.80;77.40
4374;DHT22;2201;51.100;6.814;2024-03-08T12:54:57;13.70;76.40
4374;DHT22;2201;51.100;6.814;2024-03-08T12:57:28;13.70;77.10
4374;DHT22;2201;51.100;6.814;2024-03-08T13:00:27;13.80;76.90
4374;DHT22;2201;51.100;6.814;2024-03-08T13:02:58;14.00;76.50
4374;DHT22;2201;51.100;6.814;2024-03-08T13:05:25;13.70;75.50
4374;DHT22;2201;51.100;6.814;2024-03-08T13:07:53;13.70;76.20
4374;DHT22;2201;51.100;6.814;2024-03-08T13:10:20;13.80;76.20
4374;DHT22;2201;51.100;6.814;2024-03-08T13:12:48;14.00;76.30
4374;DHT22;2201;51.100;6.814;2024-03-08T13:15:20;13.90;75.70
4374;DHT22;2201;51.100;6.814;2024-03-08T13:17:48;14.00;76.90
4374;DHT22;2201;51.100;6.814;2024-03-08T13:20:15;14.30;76.80
4374;DHT22;2201;51.100;6.814;2024-03-08T13:22:55;14.40;76.40
4374;DHT22;2201;51.100;6.814;2024-03-08T13:25:25;14.20;75.00
4374;DHT22;2201;51.100;6.814;2024-03-08T13:28:01;13.90;75.10
4374;DHT22;2201;51.100;6.814;2024-03-08T13:30:28;13.80;75.80
4374;DHT22;2201;51.100;6.814;2024-03-08T13:32:57;13.80;76.30
4374;DHT22;2201;51.100;6.814;2024-03-08T13:35:24;13.80;76.00
4374;DHT22;2201;51.100;6.814;2024-03-08T13:38:15;13.80;75.80
4374;DHT22;2201;51.100;6.814;2024-03-08T13:40:50;13.80;75.80
4374;DHT22;2201;51.100;6.814;2024-03-08T13:43:17;13.90;75.90
4374;DHT22;2201;51.100;6.814;2024-03-08T13:45:47;13.80;75.60
4374;DHT22;2201;51.100;6.814;2024-03-08T13:48:17;13.70;75.90
4374;DHT22;2201;51.100;6.814;2024-03-08T13:50:52;13.50;75.90
4374;DHT22;2201;51.100;6.814;2024-03-08T13:53:25;13.50;75.80
4374;DHT22;2201;51.100;6.814;2024-03-08T13:55:52;13.50;75.40
4374;DHT22;2201;51.100;6.814;2024-03-08T13:58:29;13.50;75.80
4374;DHT22;2201;51.100;6.814;2024-03-08T14:01:09;13.40;75.90
4374;DHT22;2201;51.100;6.814;2024-03-08T14:03:53;13.40;76.80
4374;DHT22;2201;51.100;6.814;2024-03-08T14:06:48;13.50;75.10
4374;DHT22;2201;51.100;6.814;2024-03-08T14:09:25;13.40;75.30
4374;DHT22;2201;51.100;6.814;2024-03-08T14:11:54;13.30;75.30
4374;DHT22;2201;51.100;6.814;2024-03-08T14:14:21;13.40;77.00
4374;DHT22;2201;51.100;6.814;2024-03-08T14:17:11;13.50;77.50
4374;DHT22;2201;51.100;6.814;2024-03-08T14:23:17;13.50;77.50
4374;DHT22;2201;51.100;6.814;2024-03-08T14:25:45;13.50;78.10
4374;DHT22;2201;51.100;6.814;2024-03-08T14:28:32;13.50;77.60
4374;DHT22;2201;51.100;6.814;2024-03-08T14:34:03;13.50;77.50
4374;DHT22;2201;51.100;6.814;2024-03-08T14:39:17;13.40;78.30
4374;DHT22;2201;51.100;6.814;2024-03-08T14:40:24;13.40;78.20
4374;DHT22;2201;51.100;6.814;2024-03-08T14:43:00;13.30;78.00
4374;DHT22;2201;51.100;6.814;2024-03-08T14:45:27;13.30;78.40
4374;DHT22;2201;51.100;6.814;2024-03-08T14:47:54;13.30;79.00
4374;DHT22;2201;51.100;6.814;2024-03-08T14:50:25;13.30;78.90
4374;DHT22;2201;51.100;6.814;2024-03-08T14:53:01;13.30;78.50
4374;DHT22;2201;51.100;6.814;2024-03-08T14:59:18;13.10;78.70
4374;DHT22;2201;51.100;6.814;2024-03-08T15:01:53;13.00;78.60
4374;DHT22;2201;51.100;6.814;2024-03-08T15:04:24;12.90;78.90
4374;DHT22;2201;51.100;6.814;2024-03-08T15:06:51;13.00;79.40
4374;DHT22;2201;51.100;6.814;2024-03-08T15:09:51;13.00;79.20
4374;DHT22;2201;51.100;6.814;2024-03-08T15:27:32;12.50;80.50
4374;DHT22;2201;51.100;6.814;2024-03-08T15:30:05;12.50;80.80
4374;DHT22;2201;51.100;6.814;2024-03-08T15:33:00;12.40;80.40
4374;DHT22;2201;51.100;6.814;2024-03-08T15:35:28;12.30;80.80
4374;DHT22;2201;51.100;6.814;2024-03-08T15:41:18;12.30;81.20
4374;DHT22;2201;51.100;6.814;2024-03-08T15:44:19;12.20;81.20
4374;DHT22;2201;51.100;6.814;2024-03-08T15:47:00;12.20;81.30
4374;DHT22;2201;51.100;6.814;2024-03-08T15:49:30;12.20;81.60
4374;DHT22;2201;51.100;6.814;2024-03-08T15:52:00;12.20;81.70
4374;DHT22;2201;51.100;6.814;2024-03-08T15:54:29;12.20;81.70
4374;DHT22;2201;51.100;6.814;2024-03-08T15:57:04;12.20;81.90
4374;DHT22;2201;51.100;6.814;2024-03-08T15:59:54;12.10;81.60
4374;DHT22;2201;51.100;6.814;2024-03-08T16:02:48;12.10;81.90
4374;DHT22;2201;51.100;6.814;2024-03-08T16:05:21;12.10;82.20
4374;DHT22;2201;51.100;6.814;2024-03-08T16:07:50;12.10;82.30
4374;DHT22;2201;51.100;6.814;2024-03-08T16:13:15;12.00;82.00
4374;DHT22;2201;51.100;6.814;2024-03-08T16:15:52;11.90;82.20
4374;DHT22;2201;51.100;6.814;2024-03-08T16:18:20;11.90;82.40
4374;DHT22;2201;51.100;6.814;2024-03-08T16:24:04;11.90;82.70
4374;DHT22;2201;51.100;6.814;2024-03-08T16:26:35;11.80;83.10
4374;DHT22;2201;51.100;6.814;2024-03-08T16:29:07;11.80;83.00
4374;DHT22;2201;51.100;6.814;2024-03-08T16:31:41;11.70;83.10
4374;DHT22;2201;51.100;6.814;2024-03-08T16:34:17;11.60;83.50
4374;DHT22;2201;51.100;6.814;2024-03-08T16:36:46;11.60;83.70
4374;DHT22;2201;51.100;6.814;2024-03-08T16:39:13;11.50;83.90
4374;DHT22;2201;51.100;6.814;2024-03-08T16:45:25;11.50;84.20
4374;DHT22;2201;51.100;6.814;2024-03-08T16:47:57;11.50;84.60
4374;DHT22;2201;51.100;6.814;2024-03-08T16:50:47;11.40;84.20
4374;DHT22;2201;51.100;6.814;2024-03-08T16:53:39;11.40;84.70
4374;DHT22;2201;51.100;6.814;2024-03-08T16:56:11;11.30;84.40
4374;DHT22;2201;51.100;6.814;2024-03-08T17:02:41;11.20;84.20
4374;DHT22;2201;51.100;6.814;2024-03-08T17:16:09;11.00;84.40
4374;DHT22;2201;51.100;6.814;2024-03-08T17:22:49;10.80;84.60
4374;DHT22;2201;51.100;6.814;2024-03-08T17:28:51;10.70;85.00
4374;DHT22;2201;51.100;6.814;2024-03-08T17:31:22;10.70;85.40
4374;DHT22;2201;51.100;6.814;2024-03-08T17:33:59;10.60;85.80
4374;DHT22;2201;51.100;6.814;2024-03-08T17:36:38;10.60;85.60
4374;DHT22;2201;51.100;6.814;2024-03-08T17:39:32;10.50;86.00
4374;DHT22;2201;51.100;6.814;2024-03-08T17:42:28;10.50;85.70
4374;DHT22;2201;51.100;6.814;2024-03-08T17:45:09;10.40;85.80
4374;DHT22;2201;51.100;6.814;2024-03-08T17:47:44;10.40;86.40
4374;DHT22;2201;51.100;6.814;2024-03-08T17:50:29;10.40;86.70
4374;DHT22;2201;51.100;6.814;2024-03-08T17:53:03;10.30;86.80
4374;DHT22;2201;51.100;6.814;2024-03-08T17:55:39;10.30;87.10
4374;DHT22;2201;51.100;6.814;2024-03-08T17:58:45;10.30;87.10
4374;DHT22;2201;51.100;6.814;2024-03-08T18:01:25;10.20;87.40
4374;DHT22;2201;51.100;6.814;2024-03-08T18:04:07;10.20;87.60
4374;DHT22;2201;51.100;6.814;2024-03-08T18:06:37;10.10;88.20
4374;DHT22;2201;51.100;6.814;2024-03-08T18:09:14;10.10;88.20
4374;DHT22;2201;51.100;6.814;2024-03-08T18:25:04;9.80;89.10
4374;DHT22;2201;51.100;6.814;2024-03-08T18:27:37;9.80;89.20
4374;DHT22;2201;51.100;6.814;2024-03-08T18:30:22;9.80;89.60
4374;DHT22;2201;51.100;6.814;2024-03-08T18:32:51;9.70;89.40
4374;DHT22;2201;51.100;6.814;2024-03-08T18:35:27;9.70;89.60
4374;DHT22;2201;51.100;6.814;2024-03-08T18:38:13;9.70;89.80